KEVW/EVW METAR and TAF weather

Enter ICAO airport designator
Station Type Date Time Source
KEVW METAR 2020/06/05 10:53 UTC NOAA

KEVW 051053Z AUTO 16006KT 10SM CLR 13/M02 A3008 RMK AO2 SLP092 T01331022


Station Type Date Time Source
KEVW Decoded METAR 2020/06/05 10:53 UTC NOAA

EVANSTON-UINTA COUNTY FIELD, WY, United States (KEVW) 41-16N 111-02W 2177M
Jun 05, 2020 - 06:53 AM EDT / 2020.06.05 1053 UTC
Wind: from the SSE (160 degrees) at 7 MPH (6 KT):0
Visibility: 10 mile(s):0
Sky conditions: clear
Temperature: 55.9 F (13.3 C)
Dew Point: 28.0 F (-2.2 C)
Relative Humidity: 34%
Pressure (altimeter): 30.08 in. Hg (1018 hPa)
ob: KEVW 051053Z AUTO 16006KT 10SM CLR 13/M02 A3008 RMK AO2 SLP092 T01331022
cycle: 11

Station Type Date Time Source
KEVW TAF 2020/06/05 12:22 UTC NOAA

TAF KEVW 051120Z 0512/0612 14006KT P6SM SKC
FM051800 22017G27KT P6SM SCT200
FM060500 17019KT P6SM BKN090 WS020/20045KT
FM060600 15015KT P6SM VCSH BKN090
FM060900 18017KT P6SM VCSH OVC080 WS020/20045KT
FM061100 18017KT P6SM VCSH OVC040

Example: see airport list